sensor_id;sensor_type;location;lat;lon;timestamp;temperature;humidity
21261;DHT22;10788;47.930;9.766;2023-01-09T00:01:40;5.40;99.90
21261;DHT22;10788;47.930;9.766;2023-01-09T00:04:06;5.30;99.90
21261;DHT22;10788;47.930;9.766;2023-01-09T00:06:32;5.30;99.90
21261;DHT22;10788;47.930;9.766;2023-01-09T00:08:57;5.40;99.90
21261;DHT22;10788;47.930;9.766;2023-01-09T00:11:23;5.30;99.90
21261;DHT22;10788;47.930;9.766;2023-01-09T00:13:49;5.30;99.90
21261;DHT22;10788;47.930;9.766;2023-01-09T00:16:15;5.30;99.90
21261;DHT22;10788;47.930;9.766;2023-01-09T00:18:40;5.30;99.90
21261;DHT22;10788;47.930;9.766;2023-01-09T00:21:08;5.30;99.90
21261;DHT22;10788;47.930;9.766;2023-01-09T00:23:34;5.30;99.90
21261;DHT22;10788;47.930;9.766;2023-01-09T00:26:05;5.30;99.90
21261;DHT22;10788;47.930;9.766;2023-01-09T00:28:31;5.30;99.90
21261;DHT22;10788;47.930;9.766;2023-01-09T00:30:59;5.30;99.90
21261;DHT22;10788;47.930;9.766;2023-01-09T00:33:28;5.40;99.90
21261;DHT22;10788;47.930;9.766;2023-01-09T00:35:54;5.40;99.90
21261;DHT22;10788;47.930;9.766;2023-01-09T00:38:20;5.40;99.90
21261;DHT22;10788;47.930;9.766;2023-01-09T00:40:45;5.40;99.90
21261;DHT22;10788;47.930;9.766;2023-01-09T00:43:11;5.40;99.90
21261;DHT22;10788;47.930;9.766;2023-01-09T00:45:37;5.40;99.90
21261;DHT22;10788;47.930;9.766;2023-01-09T00:48:08;5.40;99.90
21261;DHT22;10788;47.930;9.766;2023-01-09T00:50:34;5.40;99.90
21261;DHT22;10788;47.930;9.766;2023-01-09T00:53:06;5.40;99.90
21261;DHT22;10788;47.930;9.766;2023-01-09T00:55:34;5.40;99.90
21261;DHT22;10788;47.930;9.766;2023-01-09T00:58:00;5.40;99.90
21261;DHT22;10788;47.930;9.766;2023-01-09T01:00:27;5.40;99.90
21261;DHT22;10788;47.930;9.766;2023-01-09T01:02:52;5.40;99.90
21261;DHT22;10788;47.930;9.766;2023-01-09T01:05:18;5.40;99.90
21261;DHT22;10788;47.930;9.766;2023-01-09T01:08:09;5.50;99.90
21261;DHT22;10788;47.930;9.766;2023-01-09T01:10:35;5.40;99.90
21261;DHT22;10788;47.930;9.766;2023-01-09T01:13:00;5.40;99.90
21261;DHT22;10788;47.930;9.766;2023-01-09T01:15:26;5.40;99.90
21261;DHT22;10788;47.930;9.766;2023-01-09T01:17:53;5.40;99.90
21261;DHT22;10788;47.930;9.766;2023-01-09T01:20:19;5.40;99.90
21261;DHT22;10788;47.930;9.766;2023-01-09T01:22:45;5.40;99.90
21261;DHT22;10788;47.930;9.766;2023-01-09T01:25:12;5.50;99.90
21261;DHT22;10788;47.930;9.766;2023-01-09T01:27:38;5.40;99.90
21261;DHT22;10788;47.930;9.766;2023-01-09T01:30:06;5.30;99.90
21261;DHT22;10788;47.930;9.766;2023-01-09T01:32:32;5.40;99.90
21261;DHT22;10788;47.930;9.766;2023-01-09T01:34:57;5.40;99.90
21261;DHT22;10788;47.930;9.766;2023-01-09T01:37:23;5.50;99.90
21261;DHT22;10788;47.930;9.766;2023-01-09T01:39:50;5.50;99.90
21261;DHT22;10788;47.930;9.766;2023-01-09T01:42:17;5.50;99.90
21261;DHT22;10788;47.930;9.766;2023-01-09T01:53:25;5.60;99.90
21261;DHT22;10788;47.930;9.766;2023-01-09T01:55:49;5.50;99.90
21261;DHT22;10788;47.930;9.766;2023-01-09T01:58:18;5.60;99.90
21261;DHT22;10788;47.930;9.766;2023-01-09T02:00:45;5.60;99.90
21261;DHT22;10788;47.930;9.766;2023-01-09T02:03:14;5.60;99.90
21261;DHT22;10788;47.930;9.766;2023-01-09T02:05:41;5.70;99.90
21261;DHT22;10788;47.930;9.766;2023-01-09T02:08:07;5.50;99.90
21261;DHT22;10788;47.930;9.766;2023-01-09T02:10:33;5.60;99.90
21261;DHT22;10788;47.930;9.766;2023-01-09T02:13:01;5.60;99.90
21261;DHT22;10788;47.930;9.766;2023-01-09T02:16:24;5.70;99.90
21261;DHT22;10788;47.930;9.766;2023-01-09T02:21:37;5.60;99.90
21261;DHT22;10788;47.930;9.766;2023-01-09T02:27:24;5.70;99.90
21261;DHT22;10788;47.930;9.766;2023-01-09T02:33:03;5.70;99.90
21261;DHT22;10788;47.930;9.766;2023-01-09T02:38:40;5.70;99.90
21261;DHT22;10788;47.930;9.766;2023-01-09T02:41:42;5.70;99.90
21261;DHT22;10788;47.930;9.766;2023-01-09T02:44:28;5.70;99.90
21261;DHT22;10788;47.930;9.766;2023-01-09T02:47:06;5.60;99.90
21261;DHT22;10788;47.930;9.766;2023-01-09T02:49:34;5.70;99.90
21261;DHT22;10788;47.930;9.766;2023-01-09T02:55:05;5.70;99.90
21261;DHT22;10788;47.930;9.766;2023-01-09T03:05:39;5.70;99.90
21261;DHT22;10788;47.930;9.766;2023-01-09T03:08:21;5.70;99.90
21261;DHT22;10788;47.930;9.766;2023-01-09T03:11:03;5.60;99.90
21261;DHT22;10788;47.930;9.766;2023-01-09T03:13:54;5.60;99.90
21261;DHT22;10788;47.930;9.766;2023-01-09T03:16:27;5.60;99.90
21261;DHT22;10788;47.930;9.766;2023-01-09T03:18:56;5.70;99.90
21261;DHT22;10788;47.930;9.766;2023-01-09T03:21:23;5.60;99.90
21261;DHT22;10788;47.930;9.766;2023-01-09T03:23:55;5.60;99.90
21261;DHT22;10788;47.930;9.766;2023-01-09T03:26:22;5.60;99.90
21261;DHT22;10788;47.930;9.766;2023-01-09T03:28:48;5.60;99.90
21261;DHT22;10788;47.930;9.766;2023-01-09T03:31:13;5.60;99.90
21261;DHT22;10788;47.930;9.766;2023-01-09T03:33:39;5.60;99.90
21261;DHT22;10788;47.930;9.766;2023-01-09T03:36:05;5.60;99.90
21261;DHT22;10788;47.930;9.766;2023-01-09T03:38:31;5.60;99.90
21261;DHT22;10788;47.930;9.766;2023-01-09T03:40:57;5.60;99.90
21261;DHT22;10788;47.930;9.766;2023-01-09T03:43:23;5.60;99.90
21261;DHT22;10788;47.930;9.766;2023-01-09T03:45:48;5.50;99.90
21261;DHT22;10788;47.930;9.766;2023-01-09T03:48:14;5.60;99.90
21261;DHT22;10788;47.930;9.766;2023-01-09T03:50:39;5.50;99.90
21261;DHT22;10788;47.930;9.766;2023-01-09T03:53:13;5.50;99.90
21261;DHT22;10788;47.930;9.766;2023-01-09T03:55:42;5.50;99.90
21261;DHT22;10788;47.930;9.766;2023-01-09T03:58:07;5.50;99.90
21261;DHT22;10788;47.930;9.766;2023-01-09T04:00:33;5.50;99.90
21261;DHT22;10788;47.930;9.766;2023-01-09T04:02:59;5.50;99.90
21261;DHT22;10788;47.930;9.766;2023-01-09T04:05:24;5.40;99.90
21261;DHT22;10788;47.930;9.766;2023-01-09T04:07:50;5.50;99.90
21261;DHT22;10788;47.930;9.766;2023-01-09T04:10:16;5.40;99.90
21261;DHT22;10788;47.930;9.766;2023-01-09T04:12:42;5.40;99.90
21261;DHT22;10788;47.930;9.766;2023-01-09T04:15:08;5.30;99.90
21261;DHT22;10788;47.930;9.766;2023-01-09T04:17:33;5.40;99.90
21261;DHT22;10788;47.930;9.766;2023-01-09T04:19:59;5.40;99.90
21261;DHT22;10788;47.930;9.766;2023-01-09T04:22:25;5.30;99.90
21261;DHT22;10788;47.930;9.766;2023-01-09T04:24:50;5.20;99.90
21261;DHT22;10788;47.930;9.766;2023-01-09T04:27:16;5.20;99.90
21261;DHT22;10788;47.930;9.766;2023-01-09T04:29:42;5.10;99.90
21261;DHT22;10788;47.930;9.766;2023-01-09T04:32:07;5.20;99.90
21261;DHT22;10788;47.930;9.766;2023-01-09T04:34:33;5.10;99.90
21261;DHT22;10788;47.930;9.766;2023-01-09T04:36:58;5.00;99.90
21261;DHT22;10788;47.930;9.766;2023-01-09T04:39:24;5.00;99.90
21261;DHT22;10788;47.930;9.766;2023-01-09T04:41:50;5.00;99.90
21261;DHT22;10788;47.930;9.766;2023-01-09T04:44:16;5.00;99.90
21261;DHT22;10788;47.930;9.766;2023-01-09T04:46:42;4.90;99.90
21261;DHT22;10788;47.930;9.766;2023-01-09T04:49:08;4.90;99.90
21261;DHT22;10788;47.930;9.766;2023-01-09T04:51:34;4.90;99.90
21261;DHT22;10788;47.930;9.766;2023-01-09T04:53:59;4.80;99.90
21261;DHT22;10788;47.930;9.766;2023-01-09T04:56:25;4.80;99.90
21261;DHT22;10788;47.930;9.766;2023-01-09T04:58:50;4.70;99.90
21261;DHT22;10788;47.930;9.766;2023-01-09T05:01:16;4.70;99.90
21261;DHT22;10788;47.930;9.766;2023-01-09T05:03:42;4.70;99.90
21261;DHT22;10788;47.930;9.766;2023-01-09T05:06:07;4.70;99.90
21261;DHT22;10788;47.930;9.766;2023-01-09T05:08:33;4.70;99.90
21261;DHT22;10788;47.930;9.766;2023-01-09T05:10:58;4.60;99.90
21261;DHT22;10788;47.930;9.766;2023-01-09T05:13:25;4.70;99.90
21261;DHT22;10788;47.930;9.766;2023-01-09T05:15:50;4.60;99.90
21261;DHT22;10788;47.930;9.766;2023-01-09T05:18:16;4.60;99.90
21261;DHT22;10788;47.930;9.766;2023-01-09T05:20:41;4.50;99.90
21261;DHT22;10788;47.930;9.766;2023-01-09T05:23:07;4.60;99.90
21261;DHT22;10788;47.930;9.766;2023-01-09T05:25:33;4.50;99.90
21261;DHT22;10788;47.930;9.766;2023-01-09T05:27:58;4.40;99.90
21261;DHT22;10788;47.930;9.766;2023-01-09T05:30:26;4.40;99.90
21261;DHT22;10788;47.930;9.766;2023-01-09T05:32:52;4.30;99.90
21261;DHT22;10788;47.930;9.766;2023-01-09T05:35:18;4.30;99.90
21261;DHT22;10788;47.930;9.766;2023-01-09T05:37:44;4.20;99.90
21261;DHT22;10788;47.930;9.766;2023-01-09T05:40:10;4.20;99.90
21261;DHT22;10788;47.930;9.766;2023-01-09T05:42:36;4.10;99.90
21261;DHT22;10788;47.930;9.766;2023-01-09T05:45:02;4.10;99.90
21261;DHT22;10788;47.930;9.766;2023-01-09T05:47:28;4.10;99.90
21261;DHT22;10788;47.930;9.766;2023-01-09T05:49:53;4.10;99.90
21261;DHT22;10788;47.930;9.766;2023-01-09T05:52:21;4.00;99.90
21261;DHT22;10788;47.930;9.766;2023-01-09T05:54:47;4.10;99.90
21261;DHT22;10788;47.930;9.766;2023-01-09T05:57:12;3.90;99.90
21261;DHT22;10788;47.930;9.766;2023-01-09T05:59:38;3.90;99.90
21261;DHT22;10788;47.930;9.766;2023-01-09T06:02:03;4.00;99.90
21261;DHT22;10788;47.930;9.766;2023-01-09T06:04:29;3.90;99.90
21261;DHT22;10788;47.930;9.766;2023-01-09T06:06:55;3.90;99.90
21261;DHT22;10788;47.930;9.766;2023-01-09T06:09:21;4.00;99.90
21261;DHT22;10788;47.930;9.766;2023-01-09T06:11:47;4.00;99.90
21261;DHT22;10788;47.930;9.766;2023-01-09T06:14:12;4.10;99.90
21261;DHT22;10788;47.930;9.766;2023-01-09T06:16:38;4.00;99.90
21261;DHT22;10788;47.930;9.766;2023-01-09T06:19:04;4.00;99.90
21261;DHT22;10788;47.930;9.766;2023-01-09T06:21:30;4.00;99.90
21261;DHT22;10788;47.930;9.766;2023-01-09T06:23:56;4.00;99.90
21261;DHT22;10788;47.930;9.766;2023-01-09T06:26:26;4.00;99.90
21261;DHT22;10788;47.930;9.766;2023-01-09T06:28:52;4.00;99.90
21261;DHT22;10788;47.930;9.766;2023-01-09T06:31:21;4.00;99.90
21261;DHT22;10788;47.930;9.766;2023-01-09T06:33:46;4.00;99.90
21261;DHT22;10788;47.930;9.766;2023-01-09T06:36:12;4.00;99.90
21261;DHT22;10788;47.930;9.766;2023-01-09T06:38:38;4.00;99.90
21261;DHT22;10788;47.930;9.766;2023-01-09T06:41:04;4.00;99.90
21261;DHT22;10788;47.930;9.766;2023-01-09T06:43:30;4.00;99.90
21261;DHT22;10788;47.930;9.766;2023-01-09T06:45:56;4.00;99.90
21261;DHT22;10788;47.930;9.766;2023-01-09T06:48:21;4.00;99.90
21261;DHT22;10788;47.930;9.766;2023-01-09T06:50:52;3.90;99.90
21261;DHT22;10788;47.930;9.766;2023-01-09T06:53:18;3.90;99.90
21261;DHT22;10788;47.930;9.766;2023-01-09T06:55:44;3.90;99.90
21261;DHT22;10788;47.930;9.766;2023-01-09T06:58:10;3.80;99.90
21261;DHT22;10788;47.930;9.766;2023-01-09T07:00:36;3.80;99.90
21261;DHT22;10788;47.930;9.766;2023-01-09T07:03:02;3.80;99.90
21261;DHT22;10788;47.930;9.766;2023-01-09T07:05:29;3.80;99.90
21261;DHT22;10788;47.930;9.766;2023-01-09T07:07:54;3.70;99.90
21261;DHT22;10788;47.930;9.766;2023-01-09T07:10:21;3.70;99.90
21261;DHT22;10788;47.930;9.766;2023-01-09T07:12:47;3.70;99.90
21261;DHT22;10788;47.930;9.766;2023-01-09T07:15:13;3.70;99.90
21261;DHT22;10788;47.930;9.766;2023-01-09T07:17:39;3.70;99.90
21261;DHT22;10788;47.930;9.766;2023-01-09T07:20:05;3.70;99.90
21261;DHT22;10788;47.930;9.766;2023-01-09T07:22:30;3.60;99.90
21261;DHT22;10788;47.930;9.766;2023-01-09T07:24:56;3.60;99.90
21261;DHT22;10788;47.930;9.766;2023-01-09T07:27:21;3.70;99.90
21261;DHT22;10788;47.930;9.766;2023-01-09T07:29:47;3.60;99.90
21261;DHT22;10788;47.930;9.766;2023-01-09T07:32:13;3.60;99.90
21261;DHT22;10788;47.930;9.766;2023-01-09T07:34:38;3.60;99.90
21261;DHT22;10788;47.930;9.766;2023-01-09T07:37:04;3.60;99.90
21261;DHT22;10788;47.930;9.766;2023-01-09T07:39:29;3.50;99.90
21261;DHT22;10788;47.930;9.766;2023-01-09T07:41:55;3.50;99.90
21261;DHT22;10788;47.930;9.766;2023-01-09T07:44:20;3.40;99.90
21261;DHT22;10788;47.930;9.766;2023-01-09T07:46:46;3.50;99.90
21261;DHT22;10788;47.930;9.766;2023-01-09T07:49:12;3.50;99.90
21261;DHT22;10788;47.930;9.766;2023-01-09T07:51:37;3.50;99.90
21261;DHT22;10788;47.930;9.766;2023-01-09T07:54:10;3.50;99.90
21261;DHT22;10788;47.930;9.766;2023-01-09T07:56:37;3.50;99.90
21261;DHT22;10788;47.930;9.766;2023-01-09T07:59:03;3.40;99.90
21261;DHT22;10788;47.930;9.766;2023-01-09T08:01:29;3.40;99.90
21261;DHT22;10788;47.930;9.766;2023-01-09T08:03:54;3.40;99.90
21261;DHT22;10788;47.930;9.766;2023-01-09T08:06:20;3.40;99.90
21261;DHT22;10788;47.930;9.766;2023-01-09T08:08:45;3.40;99.90
21261;DHT22;10788;47.930;9.766;2023-01-09T08:11:11;3.40;99.90
21261;DHT22;10788;47.930;9.766;2023-01-09T08:13:36;3.40;99.90
21261;DHT22;10788;47.930;9.766;2023-01-09T08:16:02;3.40;99.90
21261;DHT22;10788;47.930;9.766;2023-01-09T08:18:28;3.40;99.90
21261;DHT22;10788;47.930;9.766;2023-01-09T08:20:53;3.40;99.90
21261;DHT22;10788;47.930;9.766;2023-01-09T08:23:19;3.40;99.90
21261;DHT22;10788;47.930;9.766;2023-01-09T08:25:44;3.50;99.90
21261;DHT22;10788;47.930;9.766;2023-01-09T08:28:10;3.50;99.90
21261;DHT22;10788;47.930;9.766;2023-01-09T08:30:36;3.60;99.90
21261;DHT22;10788;47.930;9.766;2023-01-09T08:33:01;3.60;99.90
21261;DHT22;10788;47.930;9.766;2023-01-09T08:35:27;3.70;99.90
21261;DHT22;10788;47.930;9.766;2023-01-09T08:37:53;3.70;99.90
21261;DHT22;10788;47.930;9.766;2023-01-09T08:40:18;3.70;99.90
21261;DHT22;10788;47.930;9.766;2023-01-09T08:42:44;3.70;99.90
21261;DHT22;10788;47.930;9.766;2023-01-09T08:45:28;3.80;99.90
21261;DHT22;10788;47.930;9.766;2023-01-09T08:48:13;3.90;99.90
21261;DHT22;10788;47.930;9.766;2023-01-09T08:50:38;4.00;99.90
21261;DHT22;10788;47.930;9.766;2023-01-09T08:53:04;4.00;99.90
21261;DHT22;10788;47.930;9.766;2023-01-09T08:55:30;4.00;99.90
21261;DHT22;10788;47.930;9.766;2023-01-09T08:57:55;4.00;99.90
21261;DHT22;10788;47.930;9.766;2023-01-09T09:00:22;4.00;99.90
21261;DHT22;10788;47.930;9.766;2023-01-09T09:02:53;4.00;99.90
21261;DHT22;10788;47.930;9.766;2023-01-09T09:05:19;4.00;99.90
21261;DHT22;10788;47.930;9.766;2023-01-09T09:07:49;4.00;99.90
21261;DHT22;10788;47.930;9.766;2023-01-09T09:10:16;4.00;99.90
21261;DHT22;10788;47.930;9.766;2023-01-09T09:12:42;4.10;99.90
21261;DHT22;10788;47.930;9.766;2023-01-09T09:15:09;4.10;99.90
21261;DHT22;10788;47.930;9.766;2023-01-09T09:17:41;4.10;99.90
21261;DHT22;10788;47.930;9.766;2023-01-09T09:20:08;4.10;99.90
21261;DHT22;10788;47.930;9.766;2023-01-09T09:22:34;4.20;99.90
21261;DHT22;10788;47.930;9.766;2023-01-09T09:25:00;4.20;99.90
21261;DHT22;10788;47.930;9.766;2023-01-09T09:27:25;4.20;99.90
21261;DHT22;10788;47.930;9.766;2023-01-09T09:29:51;4.30;99.90
21261;DHT22;10788;47.930;9.766;2023-01-09T09:32:16;4.40;99.90
21261;DHT22;10788;47.930;9.766;2023-01-09T09:34:42;4.40;99.90
21261;DHT22;10788;47.930;9.766;2023-01-09T09:37:08;4.40;99.90
21261;DHT22;10788;47.930;9.766;2023-01-09T09:39:34;4.40;99.90
21261;DHT22;10788;47.930;9.766;2023-01-09T09:55:53;4.80;99.90
21261;DHT22;10788;47.930;9.766;2023-01-09T09:58:35;5.00;99.90
21261;DHT22;10788;47.930;9.766;2023-01-09T10:01:01;5.00;99.90
21261;DHT22;10788;47.930;9.766;2023-01-09T10:06:10;5.00;99.90
21261;DHT22;10788;47.930;9.766;2023-01-09T10:11:34;4.90;99.90
21261;DHT22;10788;47.930;9.766;2023-01-09T10:14:03;4.80;99.90
21261;DHT22;10788;47.930;9.766;2023-01-09T10:19:09;4.80;99.90
21261;DHT22;10788;47.930;9.766;2023-01-09T10:24:27;4.90;99.90
21261;DHT22;10788;47.930;9.766;2023-01-09T10:26:57;4.80;99.90
21261;DHT22;10788;47.930;9.766;2023-01-09T10:29:39;4.90;99.90
21261;DHT22;10788;47.930;9.766;2023-01-09T10:32:19;4.90;99.90
21261;DHT22;10788;47.930;9.766;2023-01-09T10:37:19;5.00;99.90
21261;DHT22;10788;47.930;9.766;2023-01-09T10:39:55;5.00;99.90
21261;DHT22;10788;47.930;9.766;2023-01-09T10:42:28;5.00;99.90
21261;DHT22;10788;47.930;9.766;2023-01-09T10:45:30;5.00;99.90
21261;DHT22;10788;47.930;9.766;2023-01-09T10:48:25;5.20;99.90
21261;DHT22;10788;47.930;9.766;2023-01-09T10:50:54;5.10;99.90
21261;DHT22;10788;47.930;9.766;2023-01-09T10:53:29;5.20;99.90
21261;DHT22;10788;47.930;9.766;2023-01-09T10:56:01;5.20;99.90
21261;DHT22;10788;47.930;9.766;2023-01-09T10:58:29;5.30;99.90
21261;DHT22;10788;47.930;9.766;2023-01-09T11:00:55;5.40;99.90
21261;DHT22;10788;47.930;9.766;2023-01-09T11:03:26;5.40;99.90
21261;DHT22;10788;47.930;9.766;2023-01-09T11:05:54;5.60;99.90
21261;DHT22;10788;47.930;9.766;2023-01-09T11:08:41;5.70;99.90
21261;DHT22;10788;47.930;9.766;2023-01-09T11:11:09;5.80;99.90
21261;DHT22;10788;47.930;9.766;2023-01-09T11:13:36;5.90;99.90
21261;DHT22;10788;47.930;9.766;2023-01-09T11:16:07;5.90;99.90
21261;DHT22;10788;47.930;9.766;2023-01-09T11:18:54;5.90;99.90
21261;DHT22;10788;47.930;9.766;2023-01-09T11:24:24;6.00;99.90
21261;DHT22;10788;47.930;9.766;2023-01-09T11:29:39;6.00;99.90
21261;DHT22;10788;47.930;9.766;2023-01-09T11:32:05;5.90;99.90
21261;DHT22;10788;47.930;9.766;2023-01-09T11:34:45;5.90;99.90
21261;DHT22;10788;47.930;9.766;2023-01-09T11:37:12;5.90;99.90
21261;DHT22;10788;47.930;9.766;2023-01-09T11:39:44;5.90;99.90
21261;DHT22;10788;47.930;9.766;2023-01-09T11:42:21;5.90;99.90
21261;DHT22;10788;47.930;9.766;2023-01-09T11:45:15;5.80;99.90
21261;DHT22;10788;47.930;9.766;2023-01-09T11:47:41;5.70;99.90
21261;DHT22;10788;47.930;9.766;2023-01-09T11:50:18;5.80;99.90
21261;DHT22;10788;47.930;9.766;2023-01-09T11:52:45;5.80;99.90
21261;DHT22;10788;47.930;9.766;2023-01-09T11:55:15;5.90;99.90
21261;DHT22;10788;47.930;9.766;2023-01-09T11:57:42;6.00;99.90
21261;DHT22;10788;47.930;9.766;2023-01-09T12:00:25;6.00;99.90
21261;DHT22;10788;47.930;9.766;2023-01-09T12:05:54;6.10;99.90
21261;DHT22;10788;47.930;9.766;2023-01-09T12:09:08;6.10;99.90
21261;DHT22;10788;47.930;9.766;2023-01-09T12:17:02;6.10;99.90
21261;DHT22;10788;47.930;9.766;2023-01-09T12:25:33;6.10;99.90
21261;DHT22;10788;47.930;9.766;2023-01-09T12:48:04;6.10;99.90
21261;DHT22;10788;47.930;9.766;2023-01-09T12:51:06;6.10;99.90
21261;DHT22;10788;47.930;9.766;2023-01-09T12:53:38;6.10;99.90
21261;DHT22;10788;47.930;9.766;2023-01-09T12:56:22;6.10;99.90
21261;DHT22;10788;47.930;9.766;2023-01-09T12:58:55;6.00;99.90
21261;DHT22;10788;47.930;9.766;2023-01-09T13:01:31;6.00;99.90
21261;DHT22;10788;47.930;9.766;2023-01-09T13:06:39;6.30;99.90
21261;DHT22;10788;47.930;9.766;2023-01-09T13:09:20;6.20;99.90
21261;DHT22;10788;47.930;9.766;2023-01-09T13:12:02;6.10;99.90
21261;DHT22;10788;47.930;9.766;2023-01-09T13:20:24;5.90;99.90
21261;DHT22;10788;47.930;9.766;2023-01-09T13:22:53;5.90;99.90
21261;DHT22;10788;47.930;9.766;2023-01-09T13:25:35;5.70;99.90
21261;DHT22;10788;47.930;9.766;2023-01-09T13:28:20;5.60;99.90
21261;DHT22;10788;47.930;9.766;2023-01-09T13:33:22;5.30;99.90
21261;DHT22;10788;47.930;9.766;2023-01-09T13:35:56;5.20;99.90
21261;DHT22;10788;47.930;9.766;2023-01-09T13:38:24;5.20;99.90
21261;DHT22;10788;47.930;9.766;2023-01-09T13:43:53;5.20;99.90
21261;DHT22;10788;47.930;9.766;2023-01-09T13:46:19;5.10;99.90
21261;DHT22;10788;47.930;9.766;2023-01-09T13:48:45;5.00;99.90
21261;DHT22;10788;47.930;9.766;2023-01-09T13:54:09;5.00;99.90
21261;DHT22;10788;47.930;9.766;2023-01-09T13:59:38;5.00;99.90
21261;DHT22;10788;47.930;9.766;2023-01-09T14:04:58;5.00;99.90
21261;DHT22;10788;47.930;9.766;2023-01-09T14:07:32;5.00;99.90
21261;DHT22;10788;47.930;9.766;2023-01-09T14:10:00;4.90;99.90
21261;DHT22;10788;47.930;9.766;2023-01-09T14:12:28;4.90;99.90
21261;DHT22;10788;47.930;9.766;2023-01-09T14:14:56;4.90;99.90
21261;DHT22;10788;47.930;9.766;2023-01-09T14:17:35;4.90;99.90
21261;DHT22;10788;47.930;9.766;2023-01-09T14:20:04;4.80;99.90
21261;DHT22;10788;47.930;9.766;2023-01-09T14:22:33;4.80;99.90
21261;DHT22;10788;47.930;9.766;2023-01-09T14:25:14;4.80;99.90
21261;DHT22;10788;47.930;9.766;2023-01-09T14:35:47;4.80;99.90
21261;DHT22;10788;47.930;9.766;2023-01-09T14:38:33;4.90;99.90
21261;DHT22;10788;47.930;9.766;2023-01-09T14:41:01;4.90;99.90
21261;DHT22;10788;47.930;9.766;2023-01-09T14:43:43;4.80;99.90
21261;DHT22;10788;47.930;9.766;2023-01-09T14:46:15;4.80;99.90
21261;DHT22;10788;47.930;9.766;2023-01-09T14:51:23;4.90;99.90
21261;DHT22;10788;47.930;9.766;2023-01-09T14:53:50;4.90;99.90
21261;DHT22;10788;47.930;9.766;2023-01-09T14:56:28;4.90;99.90
21261;DHT22;10788;47.930;9.766;2023-01-09T14:59:11;4.90;99.90
21261;DHT22;10788;47.930;9.766;2023-01-09T15:01:41;5.00;99.90
21261;DHT22;10788;47.930;9.766;2023-01-09T15:04:35;4.90;99.90
21261;DHT22;10788;47.930;9.766;2023-01-09T15:07:04;4.90;99.90
21261;DHT22;10788;47.930;9.766;2023-01-09T15:09:43;4.90;99.90
21261;DHT22;10788;47.930;9.766;2023-01-09T15:12:15;4.90;99.90
21261;DHT22;10788;47.930;9.766;2023-01-09T15:14:43;4.90;99.90
21261;DHT22;10788;47.930;9.766;2023-01-09T15:17:26;4.90;99.90
21261;DHT22;10788;47.930;9.766;2023-01-09T15:19:53;4.90;99.90
21261;DHT22;10788;47.930;9.766;2023-01-09T15:22:29;4.90;99.90
21261;DHT22;10788;47.930;9.766;2023-01-09T15:24:57;4.90;99.90
21261;DHT22;10788;47.930;9.766;2023-01-09T15:27:23;5.00;99.90
21261;DHT22;10788;47.930;9.766;2023-01-09T15:29:50;4.80;99.90
21261;DHT22;10788;47.930;9.766;2023-01-09T15:32:24;4.80;99.90
21261;DHT22;10788;47.930;9.766;2023-01-09T15:34:51;4.80;99.90
21261;DHT22;10788;47.930;9.766;2023-01-09T15:37:28;4.80;99.90
21261;DHT22;10788;47.930;9.766;2023-01-09T15:39:56;4.80;99.90
21261;DHT22;10788;47.930;9.766;2023-01-09T15:42:28;4.70;99.90
21261;DHT22;10788;47.930;9.766;2023-01-09T15:45:40;4.70;99.90
21261;DHT22;10788;47.930;9.766;2023-01-09T15:48:33;4.80;99.90
21261;DHT22;10788;47.930;9.766;2023-01-09T15:51:06;4.60;99.90
21261;DHT22;10788;47.930;9.766;2023-01-09T15:53:35;4.60;99.90
21261;DHT22;10788;47.930;9.766;2023-01-09T15:56:15;4.50;99.90
21261;DHT22;10788;47.930;9.766;2023-01-09T15:58:43;4.50;99.90
21261;DHT22;10788;47.930;9.766;2023-01-09T16:01:34;4.40;99.90
21261;DHT22;10788;47.930;9.766;2023-01-09T16:04:15;4.40;99.90
21261;DHT22;10788;47.930;9.766;2023-01-09T16:06:49;4.20;99.90
21261;DHT22;10788;47.930;9.766;2023-01-09T16:09:28;4.10;99.90
21261;DHT22;10788;47.930;9.766;2023-01-09T16:11:57;4.10;99.90
21261;DHT22;10788;47.930;9.766;2023-01-09T16:14:29;4.00;99.90
21261;DHT22;10788;47.930;9.766;2023-01-09T16:17:01;3.90;99.90
21261;DHT22;10788;47.930;9.766;2023-01-09T16:24:45;4.00;99.90
21261;DHT22;10788;47.930;9.766;2023-01-09T16:29:45;3.90;99.90
21261;DHT22;10788;47.930;9.766;2023-01-09T16:32:20;3.90;99.90
21261;DHT22;10788;47.930;9.766;2023-01-09T16:35:00;3.90;99.90
21261;DHT22;10788;47.930;9.766;2023-01-09T16:37:27;3.90;99.90
21261;DHT22;10788;47.930;9.766;2023-01-09T16:42:31;3.80;99.90
21261;DHT22;10788;47.930;9.766;2023-01-09T16:45:16;3.90;99.90
21261;DHT22;10788;47.930;9.766;2023-01-09T16:47:41;3.90;99.90
21261;DHT22;10788;47.930;9.766;2023-01-09T16:50:11;3.90;99.90
21261;DHT22;10788;47.930;9.766;2023-01-09T16:52:36;3.90;99.90
21261;DHT22;10788;47.930;9.766;2023-01-09T16:55:02;3.90;99.90
21261;DHT22;10788;47.930;9.766;2023-01-09T16:57:29;3.80;99.90
21261;DHT22;10788;47.930;9.766;2023-01-09T16:59:56;3.80;99.90
21261;DHT22;10788;47.930;9.766;2023-01-09T17:02:24;3.70;99.90
21261;DHT22;10788;47.930;9.766;2023-01-09T17:04:51;3.60;99.90
21261;DHT22;10788;47.930;9.766;2023-01-09T17:07:22;3.60;99.90
21261;DHT22;10788;47.930;9.766;2023-01-09T17:09:51;3.60;99.90
21261;DHT22;10788;47.930;9.766;2023-01-09T17:12:19;3.50;99.90
21261;DHT22;10788;47.930;9.766;2023-01-09T17:14:46;3.60;99.90
21261;DHT22;10788;47.930;9.766;2023-01-09T17:17:12;3.60;99.90
21261;DHT22;10788;47.930;9.766;2023-01-09T17:19:38;3.60;99.90
21261;DHT22;10788;47.930;9.766;2023-01-09T17:22:03;3.50;99.90
21261;DHT22;10788;47.930;9.766;2023-01-09T17:24:29;3.50;99.90
21261;DHT22;10788;47.930;9.766;2023-01-09T17:27:13;3.50;99.90
21261;DHT22;10788;47.930;9.766;2023-01-09T17:29:57;3.50;99.90
21261;DHT22;10788;47.930;9.766;2023-01-09T17:32:23;3.50;99.90
21261;DHT22;10788;47.930;9.766;2023-01-09T17:34:48;3.50;99.90
21261;DHT22;10788;47.930;9.766;2023-01-09T17:37:15;3.50;99.90
21261;DHT22;10788;47.930;9.766;2023-01-09T17:39:42;3.50;99.90
21261;DHT22;10788;47.930;9.766;2023-01-09T17:42:07;3.50;99.90
21261;DHT22;10788;47.930;9.766;2023-01-09T17:44:33;3.60;99.90
21261;DHT22;10788;47.930;9.766;2023-01-09T17:46:59;3.60;99.90
21261;DHT22;10788;47.930;9.766;2023-01-09T17:49:24;3.60;99.90
21261;DHT22;10788;47.930;9.766;2023-01-09T17:51:52;3.50;99.90
21261;DHT22;10788;47.930;9.766;2023-01-09T17:54:17;3.30;99.90
21261;DHT22;10788;47.930;9.766;2023-01-09T17:56:45;3.20;99.90
21261;DHT22;10788;47.930;9.766;2023-01-09T17:59:14;3.10;99.90
21261;DHT22;10788;47.930;9.766;2023-01-09T18:01:40;3.10;99.90
21261;DHT22;10788;47.930;9.766;2023-01-09T18:04:07;3.10;99.90
21261;DHT22;10788;47.930;9.766;2023-01-09T18:06:32;3.00;99.90
21261;DHT22;10788;47.930;9.766;2023-01-09T18:08:58;3.00;99.90
21261;DHT22;10788;47.930;9.766;2023-01-09T18:11:24;3.00;99.90
21261;DHT22;10788;47.930;9.766;2023-01-09T18:13:51;3.00;99.90
21261;DHT22;10788;47.930;9.766;2023-01-09T18:16:23;3.10;99.90
21261;DHT22;10788;47.930;9.766;2023-01-09T18:18:50;3.00;99.90
21261;DHT22;10788;47.930;9.766;2023-01-09T18:21:18;2.90;99.90
21261;DHT22;10788;47.930;9.766;2023-01-09T18:23:45;2.90;99.90